Time;durP1;ratioP1;P1;durP2;ratioP2;P2;SDS_P1;SDS_P2;PMS_P1;PMS_P2;Temp;Humidity;BMP_temperature;BMP_pressure;BME280_temperature;BME280_humidity;BME280_pressure;Samples;Min_cycle;Max_cycle;Signal;HPM_P1;HPM_P2
2024/04/12 00:01:44;;;;;;;15.68;13.98;;;358.90;2329.60;;;;;;5372674;26;20000;-78
2024/04/12 00:04:15;;;;;;;18.92;15.23;;;358.90;2329.60;;;;;;5373287;26;20077;-75
2024/04/12 00:06:42;;;;;;;22.25;15.07;;;358.80;2329.60;;;;;;5372782;26;20000;-77
2024/04/12 00:09:17;;;;;;;21.80;14.88;;;358.70;2329.60;;;;;;5373405;26;20015;-76
2024/04/12 00:11:48;;;;;;;20.42;14.70;;;358.80;2329.60;;;;;;5375164;26;20062;-79
2024/04/12 00:14:14;;;;;;;20.98;14.73;;;358.80;2329.60;;;;;;5376888;26;19996;-77
2024/04/12 00:16:43;;;;;;;20.33;14.25;;;358.80;2329.60;;;;;;5376582;26;20076;-76
2024/04/12 00:19:13;;;;;;;22.52;14.02;;;358.70;2329.60;;;;;;5376078;26;20019;-75
2024/04/12 00:21:46;;;;;;;17.08;14.13;;;358.70;2329.60;;;;;;5376787;26;20105;-77
2024/04/12 00:24:12;;;;;;;22.15;15.23;;;358.70;2329.60;;;;;;5369926;26;20008;-75
2024/04/12 00:26:46;;;;;;;19.85;13.70;;;358.70;2329.60;;;;;;5376647;26;20004;-75
2024/04/12 00:32:04;;;;;;;17.20;13.50;;;358.80;2329.60;;;;;;5377100;26;20012;-75
2024/04/12 00:34:47;;;;;;;15.98;14.20;;;358.80;2329.60;;;;;;5375403;26;20012;-75
2024/04/12 00:37:15;;;;;;;19.67;13.50;;;358.80;2329.60;;;;;;5374725;26;20408;-76
2024/04/12 00:39:48;;;;;;;17.95;13.30;;;358.80;2329.60;;;;;;5375533;26;20015;-79
2024/04/12 00:42:25;;;;;;;21.33;13.13;;;358.90;2329.60;;;;;;5374831;26;20012;-78
2024/04/12 00:44:54;;;;;;;15.60;11.93;;;358.90;2329.60;;;;;;5375354;26;20292;-81
2024/04/12 00:47:20;;;;;;;27.50;13.27;;;358.90;2329.60;;;;;;5368382;26;20358;-77
2024/04/12 00:49:51;;;;;;;14.45;12.23;;;358.90;2329.60;;;;;;5361768;26;19996;-76
2024/04/12 00:52:22;;;;;;;16.58;13.48;;;359.00;2329.60;;;;;;5376912;26;20083;-80
2024/04/12 00:55:08;;;;;;;23.73;12.95;;;359.00;2329.60;;;;;;5375732;26;20450;-75
2024/04/12 00:57:41;;;;;;;34.67;13.35;;;359.00;2329.60;;;;;;5357157;26;20018;-79
2024/04/12 01:00:12;;;;;;;17.23;12.38;;;359.00;2329.60;;;;;;5368301;26;20404;-81
2024/04/12 01:02:39;;;;;;;18.13;12.57;;;359.10;2329.60;;;;;;5357275;26;20444;-82
2024/04/12 01:05:12;;;;;;;15.85;13.10;;;359.00;2329.60;;;;;;5376064;26;20003;-80
2024/04/12 01:07:39;;;;;;;15.18;12.52;;;359.20;2329.60;;;;;;5375446;26;20078;-79
2024/04/12 01:10:11;;;;;;;16.27;11.95;;;359.20;2329.60;;;;;;5376351;26;20471;-82
2024/04/12 01:12:38;;;;;;;19.87;12.57;;;384.30;2329.60;;;;;;5375308;26;20003;-80
2024/04/12 01:15:07;;;;;;;15.63;12.25;;;359.20;2329.60;;;;;;5376437;26;20016;-80
2024/04/12 01:17:37;;;;;;;20.00;12.45;;;359.20;2329.60;;;;;;5375453;26;20015;-81
2024/04/12 01:20:04;;;;;;;16.40;11.98;;;359.30;2329.60;;;;;;5375978;26;20004;-79
2024/04/12 01:22:31;;;;;;;18.75;12.65;;;359.30;2329.60;;;;;;5374694;26;20004;-84
2024/04/12 01:24:57;;;;;;;18.10;11.10;;;359.20;2329.60;;;;;;5375603;26;20015;-80
2024/04/12 01:27:24;;;;;;;15.35;11.93;;;384.00;2329.60;;;;;;5374942;26;20004;-81
2024/04/12 01:29:56;;;;;;;15.60;11.95;;;384.00;2329.60;;;;;;5376144;26;20520;-76
2024/04/12 01:32:23;;;;;;;14.20;11.32;;;384.00;2329.60;;;;;;5375102;26;20008;-79
2024/04/12 01:34:50;;;;;;;13.70;11.40;;;384.00;2329.60;;;;;;5375621;26;20004;-77
2024/04/12 01:37:20;;;;;;;14.88;10.73;;;384.10;2329.60;;;;;;5375487;26;20023;-76
2024/04/12 01:39:47;;;;;;;14.98;10.05;;;384.10;2329.60;;;;;;5375879;26;20012;-79
2024/04/12 01:42:13;;;;;;;16.20;11.00;;;384.10;2329.60;;;;;;5374772;26;20004;-79
2024/04/12 01:45:12;;;;;;;15.57;12.07;;;384.10;2329.60;;;;;;5375798;26;20471;-76
2024/04/12 01:47:34;;;;;;;19.33;11.27;;;384.20;2329.60;;;;;;5374753;26;20461;-78
2024/04/12 01:50:05;;;;;;;15.18;12.02;;;384.10;2329.60;;;;;;5368046;26;20001;-80
2024/04/12 01:52:40;;;;;;;18.08;12.05;;;384.00;2329.60;;;;;;5352323;26;20399;-80
2024/04/12 01:55:06;;;;;;;16.75;12.50;;;384.10;2329.60;;;;;;5368529;26;20023;-78
2024/04/12 01:57:32;;;;;;;16.77;12.57;;;384.00;2329.60;;;;;;5374568;26;20015;-76
2024/04/12 02:00:02;;;;;;;15.57;11.05;;;384.00;2329.60;;;;;;5375212;26;19996;-76
2024/04/12 02:02:28;;;;;;;19.13;12.70;;;384.00;2329.60;;;;;;5375331;26;20015;-80
2024/04/12 02:04:56;;;;;;;16.55;11.93;;;384.00;2329.60;;;;;;5374692;26;20043;-79
2024/04/12 02:07:27;;;;;;;15.50;10.95;;;359.30;2329.60;;;;;;5375100;26;20077;-77
2024/04/12 02:10:07;;;;;;;16.98;12.38;;;384.00;2329.60;;;;;;5374437;26;20474;-75
2024/04/12 02:12:42;;;;;;;13.50;11.60;;;384.10;2329.60;;;;;;5373576;26;20036;-81
2024/04/12 02:15:25;;;;;;;26.90;12.30;;;384.10;2329.60;;;;;;5374443;26;20363;-74
2024/04/12 02:17:57;;;;;;;18.95;11.98;;;384.10;2329.60;;;;;;5375182;26;20450;-77
2024/04/12 02:20:35;;;;;;;22.42;12.65;;;384.10;2329.60;;;;;;5374302;26;20449;-79
2024/04/12 02:23:05;;;;;;;15.80;10.77;;;384.10;2329.60;;;;;;5363509;26;19996;-80
2024/04/12 02:25:35;;;;;;;17.75;12.23;;;384.20;2329.60;;;;;;5362873;26;19996;-78
2024/04/12 02:28:07;;;;;;;14.95;12.43;;;384.10;2329.60;;;;;;5374766;26;19997;-79
2024/04/12 02:30:44;;;;;;;20.15;13.13;;;384.10;2329.60;;;;;;5374377;26;20012;-81
2024/04/12 02:33:12;;;;;;;21.10;13.95;;;384.00;2329.60;;;;;;5373654;26;20036;-78
2024/04/12 02:35:43;;;;;;;20.15;14.35;;;359.20;2329.60;;;;;;5374646;26;20008;-80
2024/04/12 02:38:20;;;;;;;18.25;13.60;;;359.00;2329.60;;;;;;5374580;26;20004;-79
2024/04/12 02:40:47;;;;;;;18.08;13.93;;;358.80;2329.60;;;;;;5372880;26;20338;-81
2024/04/12 02:43:15;;;;;;;17.65;12.57;;;358.70;2329.60;;;;;;5375008;26;20085;-82
2024/04/12 02:45:58;;;;;;;16.15;13.90;;;358.70;2329.60;;;;;;5374006;26;20004;-80
2024/04/12 02:48:24;;;;;;;18.27;14.18;;;358.70;2329.60;;;;;;5374277;26;20040;-77
2024/04/12 02:50:55;;;;;;;21.88;14.63;;;358.40;2329.60;;;;;;5374648;26;20015;-77
2024/04/12 02:53:25;;;;;;;22.02;13.30;;;358.60;2329.60;;;;;;5373676;26;20011;-79
2024/04/12 02:56:08;;;;;;;16.67;13.80;;;358.60;2329.60;;;;;;5374809;26;20334;-77
2024/04/12 02:58:40;;;;;;;;;;;358.70;2329.60;;;;;;5374513;26;20000;-76
2024/04/12 03:01:13;;;;;;;18.30;14.60;;;358.60;2329.60;;;;;;5375256;26;19956;-78
2024/04/12 03:03:50;;;;;;;19.30;14.00;;;358.60;2329.60;;;;;;5373555;26;20015;-75
2024/04/12 03:06:20;;;;;;;15.18;13.10;;;358.50;2329.60;;;;;;5373132;26;20023;-78
2024/04/12 03:08:49;;;;;;;20.05;14.18;;;358.50;2329.60;;;;;;5350768;26;20012;-78
2024/04/12 03:11:21;;;;;;;18.80;14.02;;;333.60;2329.60;;;;;;5374970;26;20001;-76
2024/04/12 03:13:56;;;;;;;17.50;13.38;;;358.50;2329.60;;;;;;5373619;26;20008;-81
2024/04/12 03:16:22;;;;;;;16.23;13.48;;;358.50;2329.60;;;;;;5373768;26;20050;-75
2024/04/12 03:18:51;;;;;;;15.77;13.70;;;358.50;2329.60;;;;;;5374080;26;20000;-77
2024/04/12 03:21:21;;;;;;;21.52;12.88;;;358.50;2329.60;;;;;;5374687;26;20000;-80
2024/04/12 03:23:50;;;;;;;21.73;13.98;;;358.50;2329.60;;;;;;5373610;26;20015;-78
2024/04/12 03:26:19;;;;;;;15.85;12.50;;;358.50;2329.60;;;;;;5374719;26;20004;-78
2024/04/12 03:28:45;;;;;;;19.55;14.15;;;358.50;2329.60;;;;;;5373728;26;20061;-78
2024/04/12 03:31:14;;;;;;;16.90;13.43;;;358.60;2329.60;;;;;;5373995;26;20093;-79
2024/04/12 03:33:44;;;;;;;16.27;13.68;;;358.60;2329.60;;;;;;5373146;26;20015;-80
2024/04/12 03:41:46;;;;;;;23.88;13.85;;;358.70;2329.60;;;;;;5373507;26;20001;-78
2024/04/12 03:44:25;;;;;;;15.75;13.35;;;358.60;2329.60;;;;;;5374384;26;20011;-78
2024/04/12 03:46:52;;;;;;;19.80;13.40;;;358.60;2329.60;;;;;;5376460;26;20014;-81
2024/04/12 03:49:22;;;;;;;23.55;14.63;;;358.60;2329.60;;;;;;5354187;26;20330;-76
2024/04/12 03:51:54;;;;;;;20.05;13.82;;;358.70;2329.60;;;;;;5376983;26;20019;-76
2024/04/12 03:54:21;;;;;;;19.90;14.50;;;358.70;2329.60;;;;;;5377233;26;20004;-76
2024/04/12 03:56:58;;;;;;;20.77;14.82;;;358.70;2329.60;;;;;;5376546;26;20005;-79
2024/04/12 03:59:25;;;;;;;21.60;15.63;;;358.70;2329.60;;;;;;5377431;26;20007;-78
2024/04/12 04:01:54;;;;;;;18.05;14.48;;;358.70;2329.60;;;;;;5375919;26;20434;-77
2024/04/12 04:04:25;;;;;;;20.13;14.95;;;358.70;2329.60;;;;;;5377169;26;20012;-75
2024/04/12 04:06:55;;;;;;;19.27;15.30;;;358.80;2329.60;;;;;;5375901;26;20001;-75
2024/04/12 04:09:27;;;;;;;17.75;14.15;;;358.90;2329.60;;;;;;5376854;26;20012;-76
2024/04/12 04:11:54;;;;;;;15.93;12.85;;;358.90;2329.60;;;;;;5376184;26;20464;-76
2024/04/12 04:14:25;;;;;;;22.10;16.08;;;358.90;2329.60;;;;;;5376839;26;20004;-76
2024/04/12 04:16:52;;;;;;;18.80;13.68;;;358.90;2329.60;;;;;;5374490;26;20338;-77
2024/04/12 04:19:33;;;;;;;20.27;14.38;;;359.00;2329.60;;;;;;5377320;26;20004;-77
2024/04/12 04:22:01;;;;;;;18.83;14.63;;;359.10;2329.60;;;;;;5375820;26;20001;-77
2024/04/12 04:24:32;;;;;;;16.30;13.52;;;359.10;2329.60;;;;;;5376171;26;20036;-76
2024/04/12 04:26:58;;;;;;;17.05;13.20;;;359.20;2329.60;;;;;;5376865;26;20008;-80
2024/04/12 04:29:24;;;;;;;21.58;14.35;;;359.20;2329.60;;;;;;5376022;26;20000;-79
2024/04/12 04:31:51;;;;;;;21.38;14.85;;;359.30;2329.60;;;;;;5376671;26;20004;-75
2024/04/12 04:34:19;;;;;;;18.73;14.15;;;384.10;2329.60;;;;;;5375807;26;20004;-75
2024/04/12 04:36:49;;;;;;;21.73;15.25;;;384.20;2329.60;;;;;;5377204;26;20050;-76
2024/04/12 04:39:16;;;;;;;24.15;15.10;;;384.30;2329.60;;;;;;5376035;26;20094;-75
2024/04/12 04:41:46;;;;;;;16.23;14.52;;;384.40;2329.60;;;;;;5376696;26;20431;-78
2024/04/12 04:44:14;;;;;;;18.33;14.40;;;384.60;2329.60;;;;;;5375498;26;20016;-78
2024/04/12 04:46:51;;;;;;;19.33;14.43;;;384.70;2329.60;;;;;;5375845;26;20520;-78
2024/04/12 04:49:18;;;;;;;19.42;13.63;;;384.90;2329.60;;;;;;5375839;26;20417;-80
2024/04/12 04:51:45;;;;;;;20.23;14.25;;;384.90;2329.60;;;;;;5376791;26;20077;-78
2024/04/12 04:54:11;;;;;;;23.65;15.52;;;384.90;2329.60;;;;;;5375265;26;20032;-76
2024/04/12 04:56:41;;;;;;;23.30;13.88;;;409.70;2355.20;;;;;;5373158;26;20000;-77
2024/04/12 04:59:08;;;;;;;22.98;15.63;;;409.80;2355.20;;;;;;5356190;26;20004;-79
2024/04/12 05:01:34;;;;;;;20.25;15.07;;;410.10;2355.20;;;;;;5376383;26;20004;-82
2024/04/12 05:04:01;;;;;;;20.70;14.32;;;410.40;2355.20;;;;;;5368065;26;20008;-79
2024/04/12 05:06:27;;;;;;;17.88;13.63;;;435.50;2355.20;;;;;;5368694;26;20007;-77
2024/04/12 05:08:55;;;;;;;20.40;14.70;;;461.70;2380.80;;;;;;5375366;26;20449;-76
2024/04/12 05:11:23;;;;;;;17.20;14.43;;;487.20;2380.80;;;;;;5376187;26;20004;-78
2024/04/12 05:13:55;;;;;;;20.38;12.43;;;512.90;2380.80;;;;;;5375104;26;20090;-76
2024/04/12 05:16:22;;;;;;;17.42;12.95;;;537.60;2406.40;;;;;;5375799;26;20008;-80
2024/04/12 05:18:54;;;;;;;16.73;12.90;;;537.80;2406.40;;;;;;5375733;26;20090;-77
2024/04/12 05:21:21;;;;;;;18.98;13.23;;;;;;;;;;5368304;26;20001;-78
2024/04/12 05:23:52;;;;;;;19.00;13.50;;;512.30;2380.80;;;;;;5358364;26;20012;-79
2024/04/12 05:26:20;;;;;;;20.23;13.10;;;487.20;2380.80;;;;;;5376157;26;20000;-79
2024/04/12 05:28:47;;;;;;;20.60;13.77;;;486.80;2380.80;;;;;;5375096;26;20015;-75
2024/04/12 05:31:13;;;;;;;21.95;13.65;;;487.00;2380.80;;;;;;5373887;26;19997;-76
2024/04/12 05:33:45;;;;;;;16.25;13.98;;;486.70;2380.80;;;;;;5375009;26;20077;-77
2024/04/12 05:36:11;;;;;;;26.30;14.93;;;486.70;2380.80;;;;;;5375441;26;20099;-78
2024/04/12 05:38:37;;;;;;;16.08;12.80;;;486.70;2380.80;;;;;;5374330;26;20223;-79
2024/04/12 05:41:09;;;;;;;20.60;13.98;;;486.60;2380.80;;;;;;5375396;26;20000;-76
2024/04/12 05:43:38;;;;;;;21.60;14.35;;;486.50;2380.80;;;;;;5374806;26;20000;-74
2024/04/12 05:46:05;;;;;;;16.25;13.88;;;486.40;2380.80;;;;;;5375480;26;20004;-75
2024/04/12 05:48:31;;;;;;;20.63;13.32;;;461.60;2380.80;;;;;;5374329;26;20001;-75
2024/04/12 05:50:58;;;;;;;19.27;14.63;;;461.60;2380.80;;;;;;5375452;26;20015;-73
2024/04/12 05:53:32;;;;;;;18.60;13.95;;;486.40;2380.80;;;;;;5368629;26;20016;-78
2024/04/12 05:58:42;;;;;;;17.08;13.80;;;461.70;2380.80;;;;;;5356196;26;20314;-74
2024/04/12 06:01:09;;;;;;;27.10;16.15;;;461.60;2380.80;;;;;;5347296;26;20004;-77
2024/04/12 06:03:42;;;;;;;18.40;14.93;;;461.50;2380.80;;;;;;5362928;26;20741;-70
2024/04/12 06:06:08;;;;;;;19.20;14.05;;;461.50;2380.80;;;;;;5372938;26;20000;-80
2024/04/12 06:08:35;;;;;;;20.95;15.40;;;461.70;2380.80;;;;;;5373446;26;20036;-78
2024/04/12 06:11:02;;;;;;;18.63;13.80;;;461.70;2380.80;;;;;;5374735;26;20445;-76
2024/04/12 06:13:29;;;;;;;18.88;15.00;;;486.50;2380.80;;;;;;5375072;26;20023;-71
2024/04/12 06:15:55;;;;;;;15.35;13.73;;;486.80;2380.80;;;;;;5374560;26;20073;-71
2024/04/12 06:18:21;;;;;;;20.15;13.95;;;486.90;2380.80;;;;;;5359592;26;20446;-71
2024/04/12 06:20:48;;;;;;;16.98;13.13;;;486.90;2380.80;;;;;;5374986;26;20303;-71
2024/04/12 06:23:14;;;;;;;16.33;12.85;;;487.00;2380.80;;;;;;5375868;26;20036;-72
2024/04/12 06:25:44;;;;;;;16.08;13.25;;;487.00;2380.80;;;;;;5362252;26;20015;-71
2024/04/12 06:28:14;;;;;;;16.27;13.05;;;487.10;2380.80;;;;;;5340281;26;20338;-72
2024/04/12 06:30:41;;;;;;;18.55;14.50;;;487.30;2380.80;;;;;;5348498;26;20435;-78
2024/04/12 06:33:07;;;;;;;16.73;13.45;;;487.00;2380.80;;;;;;5358202;26;20021;-82
2024/04/12 06:35:33;;;;;;;18.67;13.23;;;487.00;2380.80;;;;;;5374782;26;20015;-82
2024/04/12 06:38:00;;;;;;;17.17;13.02;;;487.00;2380.80;;;;;;5374695;26;20004;-82
2024/04/12 06:40:28;;;;;;;20.73;14.00;;;487.10;2380.80;;;;;;5374585;26;20004;-80
2024/04/12 06:43:05;;;;;;;20.40;13.80;;;487.10;2380.80;;;;;;5374937;26;20023;-73
2024/04/12 06:45:43;;;;;;;16.75;12.70;;;487.20;2380.80;;;;;;5373250;26;20004;-71
2024/04/12 06:48:20;;;;;;;18.83;12.52;;;487.30;2380.80;;;;;;5361867;26;20011;-71
2024/04/12 06:51:00;;;;;;;19.42;13.02;;;512.00;2380.80;;;;;;5369166;26;20012;-70
2024/04/12 06:53:27;;;;;;;20.02;13.27;;;512.20;2380.80;;;;;;5374480;26;20013;-71
2024/04/12 06:55:57;;;;;;;17.90;12.25;;;512.50;2380.80;;;;;;5373934;26;20078;-71
2024/04/12 06:58:24;;;;;;;16.67;12.57;;;512.90;2380.80;;;;;;5374259;26;20425;-71
2024/04/12 07:00:57;;;;;;;23.40;13.73;;;537.70;2406.40;;;;;;5374143;26;20478;-72
2024/04/12 07:03:24;;;;;;;22.15;14.02;;;538.00;2406.40;;;;;;5373494;26;20005;-72
2024/04/12 07:05:53;;;;;;;18.88;12.38;;;538.40;2406.40;;;;;;5374644;26;20004;-71
2024/04/12 07:08:26;;;;;;;18.38;13.73;;;563.80;2380.80;;;;;;5371628;26;20007;-74
2024/04/12 07:10:53;;;;;;;14.93;13.23;;;563.30;2380.80;;;;;;5374304;26;20012;-72
2024/04/12 07:13:21;;;;;;;18.73;12.27;;;563.80;2355.20;;;;;;5372845;26;20000;-74
2024/04/12 07:15:50;;;;;;;18.52;12.93;;;589.00;2304.00;;;;;;5374778;26;20012;-72
2024/04/12 07:18:16;;;;;;;15.80;13.25;;;615.00;2124.80;;;;;;5373721;26;20486;-73
2024/04/12 07:20:44;;;;;;;12.10;10.75;;;640.50;2022.40;;;;;;5377307;26;20004;-72
2024/04/12 07:23:15;;;;;;;21.95;12.48;;;665.80;1971.20;;;;;;5376231;26;20000;-73
2024/04/12 07:25:45;;;;;;;13.20;10.73;;;666.40;1920.00;;;;;;5377820;26;20000;-73
2024/04/12 07:28:14;;;;;;;15.27;12.18;;;666.00;1894.40;;;;;;5376587;26;20015;-76
2024/04/12 07:30:44;;;;;;;13.25;10.57;;;717.10;1817.60;;;;;;5377449;26;20004;-78
2024/04/12 07:33:13;;;;;;;14.13;11.00;;;742.50;1740.80;;;;;;5376896;26;20012;-78
2024/04/12 07:35:51;;;;;;;12.25;10.95;;;742.80;1715.20;;;;;;5377378;26;20015;-77
2024/04/12 07:38:17;;;;;;;13.43;11.23;;;742.60;1689.60;;;;;;5376712;26;20019;-80
2024/04/12 07:40:52;;;;;;;11.40;10.15;;;743.10;1638.40;;;;;;5374954;26;20011;-79
2024/04/12 07:43:18;;;;;;;16.23;10.43;;;717.10;1689.60;;;;;;5376916;26;20000;-74
2024/04/12 07:45:44;;;;;;;14.68;11.73;;;691.60;1715.20;;;;;;5376744;26;20445;-72
2024/04/12 07:50:59;;;;;;;16.77;10.50;;;666.00;1766.40;;;;;;5364177;26;20402;-74
2024/04/12 07:53:26;;;;;;;16.63;11.68;;;666.10;1792.00;;;;;;5368765;26;20031;-74
2024/04/12 07:56:00;;;;;;;12.15;10.85;;;691.20;1766.40;;;;;;5358767;26;20000;-74
2024/04/12 07:58:34;;;;;;;12.30;10.90;;;742.90;1689.60;;;;;;5375525;26;20001;-73
2024/04/12 08:01:15;;;;;;;14.52;13.00;;;742.90;1664.00;;;;;;5355651;26;20100;-77
2024/04/12 08:03:41;;;;;;;12.43;10.15;;;819.20;1561.60;;;;;;5355587;26;20408;-80
2024/04/12 08:06:19;;;;;;;12.13;10.85;;;845.40;1484.80;;;;;;5375445;26;20000;-76
2024/04/12 08:09:03;;;;;;;13.70;10.98;;;844.90;1459.20;;;;;;5371380;26;20004;-74
2024/04/12 08:11:36;;;;;;;12.93;11.45;;;845.20;1459.20;;;;;;5375862;26;20000;-75
2024/04/12 08:14:06;;;;;;;13.50;10.30;;;845.40;1433.60;;;;;;5377163;26;20000;-82
2024/04/12 08:16:36;;;;;;;11.80;10.57;;;819.20;1484.80;;;;;;5376098;26;20078;-73
2024/04/12 08:19:13;;;;;;;14.68;11.18;;;819.80;1484.80;;;;;;5376572;26;20004;-74
2024/04/12 08:21:45;;;;;;;18.23;11.80;;;845.50;1433.60;;;;;;5376642;26;20418;-74
2024/04/12 08:24:15;;;;;;;14.20;10.20;;;845.20;1433.60;;;;;;5367508;26;20077;-74
2024/04/12 08:26:47;;;;;;;13.60;12.20;;;794.20;1510.40;;;;;;5375990;26;20250;-73
2024/04/12 08:29:29;;;;;;;14.07;11.23;;;793.60;1536.00;;;;;;5376363;26;20050;-74
2024/04/12 08:34:48;;;;;;;12.02;10.25;;;768.90;1536.00;;;;;;5376719;26;20319;-81
2024/04/12 08:37:16;;;;;;;12.73;11.50;;;768.40;1536.00;;;;;;5376967;26;20008;-81
2024/04/12 08:39:43;;;;;;;11.07;10.05;;;768.20;1587.20;;;;;;5375366;26;20019;-82
2024/04/12 08:42:14;;;;;;;17.23;11.18;;;768.40;1561.60;;;;;;5372271;26;20027;-81
2024/04/12 08:44:50;;;;;;;12.38;9.98;;;743.30;1587.20;;;;;;5358555;26;20805;-74
2024/04/12 08:47:16;;;;;;;15.27;10.50;;;743.10;1612.80;;;;;;5376794;26;20491;-74
2024/04/12 08:49:48;;;;;;;14.50;10.52;;;742.90;1638.40;;;;;;5375849;26;20470;-74
2024/04/12 08:52:28;;;;;;;14.98;11.00;;;742.60;1638.40;;;;;;5376720;26;20008;-74
2024/04/12 08:54:59;;;;;;;11.93;10.70;;;717.70;1638.40;;;;;;5375619;26;20008;-74
2024/04/12 08:57:33;;;;;;;13.70;9.10;;;717.20;1664.00;;;;;;5376527;26;20016;-73
2024/04/12 08:59:59;;;;;;;14.23;11.00;;;716.80;1689.60;;;;;;5376020;26;20200;-74
2024/04/12 09:02:35;;;;;;;11.43;10.40;;;;;;;;;;5376751;26;20000;-76
2024/04/12 09:05:00;;;;;;;12.07;10.48;;;691.80;1689.60;;;;;;5375689;26;20637;-75
2024/04/12 09:07:27;;;;;;;13.98;11.52;;;691.80;1715.20;;;;;;5376857;26;20000;-74
2024/04/12 09:09:54;;;;;;;15.23;11.25;;;691.40;1715.20;;;;;;5374559;26;20022;-74
2024/04/12 09:12:24;;;;;;;15.82;11.43;;;691.40;1740.80;;;;;;5376292;26;20439;-75
2024/04/12 09:14:52;;;;;;;14.82;11.48;;;691.60;1715.20;;;;;;5375076;26;20015;-80
2024/04/12 09:17:24;;;;;;;12.02;10.48;;;691.60;1715.20;;;;;;5376863;26;20336;-77
2024/04/12 09:19:50;;;;;;;13.60;10.98;;;691.40;1740.80;;;;;;5375091;26;20097;-76
2024/04/12 09:22:17;;;;;;;13.52;11.20;;;691.40;1740.80;;;;;;5376968;26;20015;-81
2024/04/12 09:24:49;;;;;;;16.73;11.20;;;691.40;1740.80;;;;;;5374733;26;20000;-78
2024/04/12 09:27:22;;;;;;;15.15;11.02;;;691.50;1740.80;;;;;;5376548;26;20887;-81
2024/04/12 09:29:58;;;;;;;20.23;11.05;;;691.30;1740.80;;;;;;5375689;26;20000;-80
2024/04/12 09:35:17;;;;;;;14.65;11.05;;;691.60;1740.80;;;;;;5376492;26;20527;-80
2024/04/12 09:37:44;;;;;;;16.83;10.60;;;691.70;1715.20;;;;;;5374964;26;20000;-82
2024/04/12 09:45:45;;;;;;;16.40;9.93;;;691.40;1766.40;;;;;;5375165;26;20108;-74
2024/04/12 10:38:58;;;;;;;17.13;10.18;;;665.90;1817.60;;;;;;5374447;26;20045;-73
2024/04/12 10:41:35;;;;;;;11.18;9.25;;;665.60;1843.20;;;;;;5374469;26;20000;-73
2024/04/12 10:44:03;;;;;;;21.80;11.00;;;665.60;1843.20;;;;;;5373026;26;20323;-73
2024/04/12 10:46:29;;;;;;;15.10;9.32;;;665.60;1843.20;;;;;;5374433;26;20028;-81
2024/04/12 10:48:59;;;;;;;11.68;9.63;;;665.80;1843.20;;;;;;5375313;26;20066;-80
2024/04/12 10:51:26;;;;;;;13.77;9.48;;;665.90;1843.20;;;;;;5373627;26;19996;-81
2024/04/12 10:53:52;;;;;;;11.20;8.70;;;665.90;1817.60;;;;;;5373728;26;20025;-82
2024/04/12 10:56:20;;;;;;;13.43;9.90;;;665.80;1843.20;;;;;;5374360;26;20099;-83
2024/04/12 10:58:51;;;;;;;14.70;9.70;;;665.60;1843.20;;;;;;5374727;26;20000;-81
2024/04/12 11:01:23;;;;;;;15.52;9.52;;;665.60;1843.20;;;;;;5374975;26;20019;-73
2024/04/12 11:03:59;;;;;;;11.25;10.15;;;665.90;1817.60;;;;;;5374773;26;20012;-76
2024/04/12 11:06:34;;;;;;;9.60;8.63;;;665.90;1817.60;;;;;;5374943;26;20008;-73
2024/04/12 11:09:06;;;;;;;15.25;10.50;;;666.40;1817.60;;;;;;5373224;26;20007;-74
2024/04/12 11:11:43;;;;;;;12.43;9.65;;;666.50;1792.00;;;;;;5374174;26;20001;-73
2024/04/12 11:14:17;;;;;;;13.88;10.77;;;666.50;1817.60;;;;;;5374447;26;20327;-73
2024/04/12 11:33:39;;;;;;;13.07;10.32;;;691.60;1792.00;;;;;;5366733;26;20525;-73
2024/04/12 11:36:10;;;;;;;17.35;10.15;;;691.70;1766.40;;;;;;5366219;26;20079;-73
2024/04/12 11:38:39;;;;;;;15.18;10.15;;;691.60;1766.40;;;;;;5360674;26;20108;-74
2024/04/12 11:41:15;;;;;;;13.68;9.07;;;691.60;1792.00;;;;;;5361026;26;20013;-72
2024/04/12 11:43:47;;;;;;;13.45;9.07;;;691.60;1792.00;;;;;;5337886;26;20082;-73
2024/04/12 11:46:19;;;;;;;15.50;9.37;;;692.00;1740.80;;;;;;5352089;26;20075;-73
2024/04/12 11:48:45;;;;;;;14.95;9.82;;;716.80;1766.40;;;;;;5372841;26;20753;-73
2024/04/12 11:51:15;;;;;;;10.15;9.13;;;691.80;1740.80;;;;;;5373766;26;20037;-74
2024/04/12 11:53:42;;;;;;;10.27;8.63;;;691.30;1766.40;;;;;;5359337;26;20451;-73
2024/04/12 11:56:11;;;;;;;13.48;9.07;;;691.30;1740.80;;;;;;5361265;26;20078;-75
2024/04/12 11:58:36;;;;;;;10.27;8.15;;;666.40;1766.40;;;;;;5362879;26;20008;-73
2024/04/12 12:01:05;;;;;;;17.35;9.70;;;666.20;1766.40;;;;;;5373578;26;20330;-73
2024/04/12 12:03:31;;;;;;;13.38;9.88;;;666.30;1792.00;;;;;;5372696;26;20073;-79
2024/04/12 12:06:06;;;;;;;16.98;10.40;;;666.20;1792.00;;;;;;5375895;26;20004;-81
2024/04/12 12:08:40;;;;;;;10.65;9.05;;;666.30;1792.00;;;;;;5376367;26;20564;-78
2024/04/12 12:11:06;;;;;;;10.52;9.25;;;666.50;1766.40;;;;;;5377432;26;20023;-75
2024/04/12 12:13:32;;;;;;;11.50;9.45;;;691.40;1792.00;;;;;;5376210;26;20000;-82
2024/04/12 12:15:58;;;;;;;15.65;9.38;;;691.30;1792.00;;;;;;5377311;26;20461;-82
2024/04/12 12:18:27;;;;;;;16.27;9.65;;;691.20;1792.00;;;;;;5376069;26;20019;-72
2024/04/12 12:20:54;;;;;;;19.45;10.65;;;691.30;1766.40;;;;;;5376920;26;20025;-73
2024/04/12 12:23:20;;;;;;;15.63;9.13;;;691.20;1766.40;;;;;;5376898;26;20000;-71
2024/04/12 12:25:47;;;;;;;15.55;10.23;;;666.20;1817.60;;;;;;5376654;26;20233;-72
2024/04/12 12:28:13;;;;;;;18.67;9.07;;;666.10;1817.60;;;;;;5376646;26;20073;-71
2024/04/12 12:30:39;;;;;;;11.52;8.80;;;666.30;1792.00;;;;;;5376234;26;20011;-72
2024/04/12 12:33:07;;;;;;;12.27;7.95;;;666.10;1817.60;;;;;;5377451;26;20004;-73
2024/04/12 12:35:35;;;;;;;10.57;9.02;;;666.30;1817.60;;;;;;5376314;26;20000;-73
2024/04/12 12:38:01;;;;;;;12.68;9.20;;;666.10;1792.00;;;;;;5376861;26;20004;-78
2024/04/12 12:40:30;;;;;;;16.60;9.65;;;666.30;1817.60;;;;;;5376177;26;20014;-78
2024/04/12 12:42:56;;;;;;;13.52;9.23;;;666.20;1868.80;;;;;;5350520;26;20008;-78
2024/04/12 12:45:24;;;;;;;10.27;8.90;;;665.90;1868.80;;;;;;5350561;26;20000;-73
2024/04/12 12:47:51;;;;;;;16.15;10.55;;;665.90;1843.20;;;;;;5348026;26;20447;-74
2024/04/12 12:50:22;;;;;;;14.85;10.25;;;665.90;1868.80;;;;;;5350977;26;20356;-72
2024/04/12 12:52:52;;;;;;;14.13;9.90;;;640.60;1843.20;;;;;;5363949;26;20007;-73
2024/04/12 12:55:21;;;;;;;15.65;10.13;;;640.40;1868.80;;;;;;5356484;26;20001;-73
2024/04/12 12:57:47;;;;;;;13.50;10.40;;;640.10;1894.40;;;;;;5376563;26;20005;-73
2024/04/12 13:00:19;;;;;;;14.20;12.13;;;640.50;1868.80;;;;;;5375864;26;20036;-73
2024/04/12 13:02:51;;;;;;;14.50;9.77;;;640.90;1843.20;;;;;;5377252;26;20050;-74
2024/04/12 13:05:18;;;;;;;21.15;13.35;;;640.80;1843.20;;;;;;5376265;26;20004;-73
2024/04/12 13:07:48;;;;;;;16.58;11.65;;;665.60;1868.80;;;;;;5376431;26;20024;-73
2024/04/12 13:10:19;;;;;;;14.00;10.10;;;640.90;1843.20;;;;;;5375565;26;20001;-73
2024/04/12 13:12:51;;;;;;;15.43;10.75;;;665.60;1868.80;;;;;;5376409;26;20019;-74
2024/04/12 13:15:21;;;;;;;15.73;10.35;;;665.60;1868.80;;;;;;5354022;26;20086;-73
2024/04/12 13:17:49;;;;;;;17.13;10.93;;;640.90;1843.20;;;;;;5376011;26;20015;-74
2024/04/12 13:20:20;;;;;;;13.68;10.93;;;640.90;1843.20;;;;;;5375887;26;20111;-74
2024/04/12 13:22:47;;;;;;;15.60;11.48;;;640.70;1894.40;;;;;;5376324;26;20037;-76
2024/04/12 13:25:16;;;;;;;16.02;10.73;;;640.60;1894.40;;;;;;5375681;26;20004;-73
2024/04/12 13:27:47;;;;;;;17.67;10.77;;;640.80;1868.80;;;;;;5374113;26;20044;-73
2024/04/12 13:30:16;;;;;;;13.70;9.48;;;640.90;1894.40;;;;;;5375211;26;20461;-72
2024/04/12 13:32:43;;;;;;;12.73;9.95;;;665.60;1894.40;;;;;;5375070;26;20004;-73
2024/04/12 13:35:10;;;;;;;13.75;10.65;;;665.70;1920.00;;;;;;5375320;26;20016;-72
2024/04/12 13:37:35;;;;;;;19.85;10.82;;;666.00;1894.40;;;;;;5359860;26;20005;-74
2024/04/12 13:40:08;;;;;;;12.95;10.30;;;666.10;1868.80;;;;;;5351396;26;20085;-73
2024/04/12 13:42:39;;;;;;;13.63;10.18;;;665.80;1868.80;;;;;;5375035;26;20044;-73
2024/04/12 13:50:56;;;;;;;12.88;10.40;;;666.20;1817.60;;;;;;5375542;26;20071;-73
2024/04/12 13:53:43;;;;;;;11.07;9.77;;;666.40;1817.60;;;;;;5374476;26;20004;-72